Etusivu
METAR-TAF:

METAR-TAF

Lentoasemat :

Cognac, Ranska

Leveyspiiri: 45-40N, Pituuspiiri: 000-19W, korkeus merenpinnasta: 30 m

Tämänhetkinen sää

Tämä raportti tehtiin 39 minuuttia sitten, kello 21.30 UTC
tyyntä
Lämpötila -3°C
Kosteus 93%
Ilmanpaine 1006 hPa
Näkyvyys: 6000 m

METAR: LFBG 202130Z AUTO 00000KT 6000 NSC M03/M04 Q1006 NOSIG

Aika: 23:09 (22:09 UTC)

Sääennuste

Tämä raportti tehtiin 8 tuntia ja 9 minuuttia sitten, kello 14.00 UTC
Ennuste voimassa 20. päivästä klo 15 UTC - 21. päivään klo 15 UTC
Tuuli 5 kn pohjoisesta
Näkyvyys 10 km tai enemmän
Hajonneita pilviä 2500 ft:n korkeudessa
Tulossa
20. päivästä klo 16 UTC - 20. päivään klo 18 UTC
Näkyvyys 10 km tai enemmän
ei pilviä alle 1500 m:ssä eikä cumulonimbus-pilviä

TAF: LFBG 201400Z 2015/2115 35005KT 9999 BKN025 BECMG 2016/2018 CAVOK

Säähavainnot ja -ennusteet yli 4000 lentoasemalta (METAR- ja TAF-raportit).

Käytössä olevat sääasemat on merkitty karttaan keltaisilla ja punaisilla pisteillä.

Aseta hiiri pisteen päälle nähdäksesi sääaseman nimen.

Klikkaa sitten nähdäksesi säähavainnot ja -ennusteet.

Kartan vaihtaminen: klikkaa mustalla rastilla varustettuja vihreitä pisteitä, niin voit zoomata sisään; viivalla varustettua vihreää pistettä, niin voit zoomata ulos tai vihreitä nuolia, niin pääset viereisille kartoille.


METAR-TAF: